METAR Data
IDs: Format: Raw Decoded Include TAF

Data at: 0131 UTC 24 Oct 2019

METAR for:KAXA (Algona Muni, IA, US)
Text:KAXA 240115Z AUTO 32005KT 10SM FEW035 BKN043 OVC075 04/03 A3008 RMK A01
Temperature: 4.0°C ( 39°F)
Dewpoint: 3.0°C ( 37°F) [RH = 93%]
Pressure (altimeter):30.08 inches Hg (1018.7 mb)
Winds:from the NW (320 degrees) at 6 MPH (5 knots; 2.6 m/s)
Visibility:10 or more sm (16+ km)
Ceiling:4300 feet AGL
Clouds: few clouds at 3500 feet AGL, broken clouds at 4300 feet AGL, overcast cloud deck at 7500 feet AGL
QC Flag:automated observation with no human augmentation